ESOE

Örebro

Airport
ICAO code
ESOE
Summary
ICAO Region
EUR
ICAO Territory
Location

Örebro,

Elevation
188 ft
Coordinates
59° 13' 25" N , 15° 2' 17" E
KCC
Cfb
Metar
Observation
ESOE 081320Z 25004KT 200V310 9999 SCT038 21/12 Q1023
Station
Orebro Private
Date/Time
2022-08-08 13:20:00
Wind direction
250°
Wind speed
04 kts
Lowest cloud amount
scattered clouds
Temperature
21°C
Dew point
12°C
Humidity
56%
QNH
1023 hPa
Weather condition
n/a

Description

Örebro Airport is located 10 km southwest of Örebro, Sweden.

Climatology

Temperate Marine climate/Oceanic climate (Köppen climate classification Cfb). Moderately cool summer and comparatively warm winter.

Runways

Designator Length Width Surface Rops
1/19 2601 45 ASP Yes/Yes

Airport map

Aerial View

SKYbrary Partners:

Safety knowledge contributed by: